AirNav   ProFlight Series 2 Aviation Headset
 
 1545 users online  

RI07 Wing-Over Farm Airport
Tiverton, Rhode Island, USA

GOING TO TIVERTON?


FAA INFORMATION EFFECTIVE 16 JULY 2020

Location

FAA Identifier: RI07
Lat/Long: 41-34-44.3710N 071-08-30.1590W
41-34.739517N 071-08.502650W
41.5789919,-71.1417108
(estimated)
Elevation: 113 ft. / 34.4 m (surveyed)
Variation: 15W (1985)
From city: 3 miles SE of TIVERTON, RI
Time zone: UTC -4 (UTC -5 during Standard Time)
Zip code: 02878

Airport Operations

Airport use: Private use. Permission required prior to landing
Activation date: 02/1972
Control tower: no
ARTCC: BOSTON CENTER
FSS: BRIDGEPORT FLIGHT SERVICE STATION
Attendance: UNATNDD
Wind indicator: no
Segmented circle: no

Airport Communications

WX ASOS at UUU (7 nm SW): 132.075 (401-846-5910)
WX ASOS at EWB (10 nm NE): 126.85 (508-992-0195)
WX ASOS at OQU (12 nm W): 118.6
WX ASOS at PVD (15 nm NW): 124.2 (401-734-2818)
WX ASOS at TAN (19 nm N): 132.675 (508-824-5005)

Nearby radio navigation aids

VOR radial/distance  VOR name  Freq  Var
PVDr138/15.6PROVIDENCE VOR/DME115.6014W
MVYr310/26.2MARTHAS VINEYARD VOR/DME114.5015W
SEYr053/31.5SANDY POINT VOR/DME117.8015W
ORWr102/38.5NORWICH VOR/DME110.0014W
PUTr140/38.7PUTNAM VOR/DME117.4014W

Airport Services

Airframe service: NONE
Powerplant service: NONE

Runway Information

Runway N/S

Dimensions: 1200 x 100 ft. / 366 x 30 m
Surface: turf
RUNWAY N  RUNWAY S
Traffic pattern: leftleft
Obstructions: treesnone

Airport Ownership and Management from official FAA records

Ownership: Privately-owned
Owner: MARJORIE E. JENSEN
1513 CRANDALL ROAD
TIVERTON, RI 02878
Phone 401-624-3734
Manager: MARJORIE E. JENSEN
1724 R. CRANDALL ROAD
TIVERTON, RI 02878
Phone 401-624-3734

Additional Remarks

FOR CD CTC PROVIDENCE APCH AT 401-738-8945, WHEN APCH CLSD CTC BOSTON ARTCC AT 603-879-6859.

Instrument Procedures

There are no published instrument procedures at RI07.

Some nearby airports with instrument procedures:

KUUU - Newport State Airport (7 nm SW)
KEWB - New Bedford Regional Airport (10 nm NE)
KOQU - Quonset State Airport (12 nm W)
KPVD - Theodore Francis Green State Airport (15 nm NW)
KTAN - Taunton Municipal Airport - King Field (19 nm N)
 
Loc | Ops | Rwys | IFR | FBO | Links
Com | Nav | Svcs | Stats | Notes
Area around RI07 (Wing-Over Farm Airport)
 
Road maps at: MapQuest Bing Google
 
Aerial photo
No photo
 
Sectional chart

 
Airport distance calculator
Flying to Wing-Over Farm Airport? Find the distance to fly.

From to RI07

Sunrise and sunset
Times for 06-Aug-2020
 Local
(UTC-4)
 Zulu
(UTC)
Morning civil twilight05:1509:15
Sunrise05:4609:46
Sunset19:5523:55
Evening civil twilight20:2500:25

Current date and time
Zulu (UTC)  06-Aug-2020 18:01:33
Local (UTC-4)  06-Aug-2020 14:01:33
 
METAR
KUUU 
7nm SW 
061753Z AUTO 17007KT 10SM CLR 26/14 A3013 RMK AO2 SLP201 T02560144 10283 20239 55000
KEWB 
11nm NE 
061753Z 17009KT 10SM CLR 28/14 A3011 RMK AO2 SLP195 T02780139 10294 20239 56005
KOQU 
12nm W 
061750Z 21011KT 10SM BKN150 OVC250 26/15 A3013
KPVD 
15nm NW 
061751Z 18011KT 10SM FEW050 FEW090 OVC190 27/14 A3012 RMK AO2 SLP199 T02720144 10283 20239 58002
KTAN 
19nm N 
061752Z AUTO 24004KT 10SM CLR 29/13 A3010 RMK AO2 SLP190 T02940128 10306 20233 56008
TAF
KPVD 
15nm NW 
061732Z 0618/0718 18007KT P6SM BKN070 FM070000 20004KT P6SM SCT060 FM070400 28003KT P6SM BKN060 FM071200 05004KT P6SM VCSH OVC060 FM071700 12006KT P6SM VCSH OVC050
NOTAMs
Click for the latest NOTAMs
NOTAMs are issued by the DoD/FAA and will open in a separate window not controlled by AirNav.

 

 
 

Would you like to see your business listed on this page?

 If your business provides an interesting product or service to pilots, flight crews, aircraft, or users of the Wing-Over Farm Airport, you should consider listing it here.  To start the listing process, click on the button below
 
Add a business
 

Other Pages about Wing-Over Farm Airport

Update a link
 
Copyright © AirNav, LLC. All rights reserved. Privacy Policy  Contact